Time;durP1;ratioP1;P1;durP2;ratioP2;P2;SDS_P1;SDS_P2;PMS_P1;PMS_P2;Temp;Humidity;BMP_temperature;BMP_pressure;BME280_temperature;BME280_humidity;BME280_pressure;Samples;Min_cycle;Max_cycle;Signal;HPM_P1;HPM_P2
2023/07/03 00:02:21;;;;;;;;;;;;;;;;;;5052752;28;20049;-70
2023/07/03 00:04:47;;;;;;;;;;;;;;;;;;5054401;28;20011;-72
2023/07/03 00:07:13;;;;;;;;;;;;;;;;;;5054166;28;20432;-71
2023/07/03 00:09:39;;;;;;;;;;;;;;;;;;5054360;28;19953;-71
2023/07/03 00:12:05;;;;;;;;;;;;;;;;;;5054040;28;19980;-72
2023/07/03 00:14:30;;;;;;;;;;;;;;;;;;5054007;28;20046;-72
2023/07/03 00:16:56;;;;;;;;;;;;;;;;;;5053503;28;19953;-71
2023/07/03 00:19:26;;;;;;;;;;;;;;;;;;5054152;28;19961;-72
2023/07/03 00:21:52;;;;;;;;;;;;;;;;;;5053853;28;19951;-71
2023/07/03 00:24:18;;;;;;;;;;;;;;;;;;5053761;28;20336;-72
2023/07/03 00:26:44;;;;;;;;;;;;;;;;;;5054088;28;19952;-70
2023/07/03 00:29:09;;;;;;;;;;;;;;;;;;5053760;28;20007;-71
2023/07/03 00:31:35;;;;;;;;;;;;;;;;;;5053800;28;19959;-71
2023/07/03 00:34:01;;;;;;;;;;;;;;;;;;5053935;28;19993;-71
2023/07/03 00:36:27;;;;;;;;;;;;;;;;;;5052350;28;19958;-72
2023/07/03 00:38:58;;;;;;;;;;;;;;;;;;5053920;28;19962;-71
2023/07/03 00:41:24;;;;;;;;;;;;;;;;;;5054181;28;20454;-71
2023/07/03 00:43:50;;;;;;;;;;;;;;;;;;5053360;28;19990;-71
2023/07/03 00:46:16;;;;;;;;;;;;;;;;;;5054103;28;20001;-71
2023/07/03 00:48:42;;;;;;;;;;;;;;;;;;5053859;28;20037;-72
2023/07/03 00:51:08;;;;;;;;;;;;;;;;;;5053561;28;20404;-71
2023/07/03 00:53:34;;;;;;;;;;;;;;;;;;5053505;28;19952;-71
2023/07/03 00:55:59;;;;;;;;;;;;;;;;;;5054077;28;20385;-71
2023/07/03 00:58:25;;;;;;;;;;;;;;;;;;5053729;28;20000;-72
2023/07/03 01:00:51;;;;;;;;;;;;;;;;;;5053743;28;20322;-71
2023/07/03 01:03:17;;;;;;;;;;;;;;;;;;5053390;28;20490;-71
2023/07/03 01:05:43;;;;;;;;;;;;;;;;;;5053450;28;19951;-72
2023/07/03 01:08:11;;;;;;;;;;;;;;;;;;5053954;28;20410;-71
2023/07/03 01:10:38;;;;;;;;;;;;;;;;;;5053388;28;19953;-72
2023/07/03 01:13:04;;;;;;;;;;;;;;;;;;5051877;28;19956;-71
2023/07/03 01:15:30;;;;;;;;;;;;;;;;;;5053922;28;20414;-71
2023/07/03 01:17:56;;;;;;;;;;;;;;;;;;5053290;28;19952;-71
2023/07/03 01:20:22;;;;;;;;;;;;;;;;;;5053847;28;20399;-71
2023/07/03 01:22:47;;;;;;;;;;;;;;;;;;5053429;28;19949;-70
2023/07/03 01:25:14;;;;;;;;;;;;;;;;;;5053227;28;20321;-71
2023/07/03 01:27:40;;;;;;;;;;;;;;;;;;5053253;28;20001;-71
2023/07/03 01:30:06;;;;;;;;;;;;;;;;;;5057343;28;19952;-71
2023/07/03 01:32:32;;;;;;;;;;;;;;;;;;5055608;28;19971;-72
2023/07/03 01:34:58;;;;;;;;;;;;;;;;;;5056964;28;19965;-71
2023/07/03 01:37:24;;;;;;;;;;;;;;;;;;5057244;28;19982;-71
2023/07/03 01:39:49;;;;;;;;;;;;;;;;;;5056908;28;20002;-72
2023/07/03 01:42:15;;;;;;;;;;;;;;;;;;5056654;28;20411;-71
2023/07/03 01:44:41;;;;;;;;;;;;;;;;;;5057846;28;20404;-71
2023/07/03 01:47:07;;;;;;;;;;;;;;;;;;5057032;28;19953;-70
2023/07/03 01:49:33;;;;;;;;;;;;;;;;;;5056708;28;19950;-70
2023/07/03 01:51:59;;;;;;;;;;;;;;;;;;5056699;28;19946;-71
2023/07/03 01:54:25;;;;;;;;;;;;;;;;;;5056656;28;19960;-71
2023/07/03 01:56:51;;;;;;;;;;;;;;;;;;5056873;28;19954;-71
2023/07/03 01:59:17;;;;;;;;;;;;;;;;;;5056547;28;19950;-71
2023/07/03 02:01:43;;;;;;;;;;;;;;;;;;5056797;28;19951;-71
2023/07/03 02:04:09;;;;;;;;;;;;;;;;;;5056352;28;19979;-70
2023/07/03 02:06:36;;;;;;;;;;;;;;;;;;5056981;28;19982;-71
2023/07/03 02:09:02;;;;;;;;;;;;;;;;;;5056350;28;20005;-70
2023/07/03 02:11:28;;;;;;;;;;;;;;;;;;5056596;28;19948;-70
2023/07/03 02:13:53;;;;;;;;;;;;;;;;;;5056531;28;19945;-70
2023/07/03 02:16:19;;;;;;;;;;;;;;;;;;5056755;28;19988;-70
2023/07/03 02:18:50;;;;;;;;;;;;;;;;;;5056144;28;20012;-70
2023/07/03 02:21:16;;;;;;;;;;;;;;;;;;5056719;28;19951;-70
2023/07/03 02:23:42;;;;;;;;;;;;;;;;;;5056007;28;20067;-72
2023/07/03 02:26:09;;;;;;;;;;;;;;;;;;5056562;28;20388;-71
2023/07/03 02:28:35;;;;;;;;;;;;;;;;;;5056271;28;20407;-70
2023/07/03 02:31:01;;;;;;;;;;;;;;;;;;5056184;28;19950;-70
2023/07/03 02:33:27;;;;;;;;;;;;;;;;;;5055865;28;19950;-70
2023/07/03 02:35:53;;;;;;;;;;;;;;;;;;5055771;28;20322;-71
2023/07/03 02:38:19;;;;;;;;;;;;;;;;;;5055778;28;20028;-71
2023/07/03 02:40:46;;;;;;;;;;;;;;;;;;5055625;28;20325;-71
2023/07/03 02:43:12;;;;;;;;;;;;;;;;;;5055602;28;20010;-72
2023/07/03 02:45:38;;;;;;;;;;;;;;;;;;5056153;28;20407;-71
2023/07/03 02:48:04;;;;;;;;;;;;;;;;;;5055602;28;19951;-70
2023/07/03 02:50:31;;;;;;;;;;;;;;;;;;5055605;28;19945;-70
2023/07/03 02:52:57;;;;;;;;;;;;;;;;;;5056148;28;20001;-72
2023/07/03 02:55:24;;;;;;;;;;;;;;;;;;5055769;28;19949;-71
2023/07/03 02:57:49;;;;;;;;;;;;;;;;;;5055436;28;19981;-71
2023/07/03 03:00:16;;;;;;;;;;;;;;;;;;5055722;28;19958;-70
2023/07/03 03:02:42;;;;;;;;;;;;;;;;;;5055281;28;19952;-72
2023/07/03 03:05:09;;;;;;;;;;;;;;;;;;5055621;28;20305;-71
2023/07/03 03:07:35;;;;;;;;;;;;;;;;;;5055244;28;19961;-71
2023/07/03 03:10:01;;;;;;;;;;;;;;;;;;5055487;28;19956;-72
2023/07/03 03:12:27;;;;;;;;;;;;;;;;;;5055127;28;19982;-71
2023/07/03 03:14:52;;;;;;;;;;;;;;;;;;5053800;28;20045;-70
2023/07/03 03:17:18;;;;;;;;;;;;;;;;;;5055018;28;19954;-70
2023/07/03 03:19:44;;;;;;;;;;;;;;;;;;5055016;28;20046;-70
2023/07/03 03:22:10;;;;;;;;;;;;;;;;;;5053429;28;19964;-71
2023/07/03 03:24:36;;;;;;;;;;;;;;;;;;5054909;28;20304;-71
2023/07/03 03:27:06;;;;;;;;;;;;;;;;;;5054921;28;20001;-71
2023/07/03 03:29:32;;;;;;;;;;;;;;;;;;5055098;28;20427;-72
2023/07/03 03:31:58;;;;;;;;;;;;;;;;;;5054769;28;19953;-71
2023/07/03 03:34:24;;;;;;;;;;;;;;;;;;5054701;28;20000;-72
2023/07/03 03:36:49;;;;;;;;;;;;;;;;;;5054724;28;19954;-71
2023/07/03 03:39:15;;;;;;;;;;;;;;;;;;5054928;28;19952;-71
2023/07/03 03:41:41;;;;;;;;;;;;;;;;;;5054864;28;19958;-72
2023/07/03 03:44:07;;;;;;;;;;;;;;;;;;5054176;28;20003;-71
2023/07/03 03:46:34;;;;;;;;;;;;;;;;;;5055035;28;20007;-71
2023/07/03 03:49:00;;;;;;;;;;;;;;;;;;5053150;28;20422;-72
2023/07/03 03:51:26;;;;;;;;;;;;;;;;;;5053700;28;19947;-72
2023/07/03 03:53:52;;;;;;;;;;;;;;;;;;5054360;28;20006;-71
2023/07/03 03:56:19;;;;;;;;;;;;;;;;;;5054363;28;19950;-71
2023/07/03 03:58:45;;;;;;;;;;;;;;;;;;5054616;28;19956;-71
2023/07/03 04:01:11;;;;;;;;;;;;;;;;;;5054229;28;19952;-71
2023/07/03 04:03:37;;;;;;;;;;;;;;;;;;5054150;28;19982;-71
2023/07/03 04:06:02;;;;;;;;;;;;;;;;;;5054481;28;20058;-72
2023/07/03 04:08:28;;;;;;;;;;;;;;;;;;5054144;28;19953;-71
2023/07/03 04:10:54;;;;;;;;;;;;;;;;;;5054139;28;19957;-71
2023/07/03 04:13:20;;;;;;;;;;;;;;;;;;5054103;28;19951;-71
2023/07/03 04:15:51;;;;;;;;;;;;;;;;;;5054267;28;20017;-71
2023/07/03 04:18:17;;;;;;;;;;;;;;;;;;5053004;28;20044;-70
2023/07/03 04:20:43;;;;;;;;;;;;;;;;;;5054211;28;19996;-71
2023/07/03 04:23:09;;;;;;;;;;;;;;;;;;5053825;28;20437;-71
2023/07/03 04:25:35;;;;;;;;;;;;;;;;;;5053892;28;19960;-70
2023/07/03 04:28:00;;;;;;;;;;;;;;;;;;5053886;28;19960;-72
2023/07/03 04:30:26;;;;;;;;;;;;;;;;;;5054312;28;20444;-71
2023/07/03 04:32:54;;;;;;;;;;;;;;;;;;5054052;28;19958;-72
2023/07/03 04:35:20;;;;;;;;;;;;;;;;;;5053691;28;19967;-71
2023/07/03 04:37:46;;;;;;;;;;;;;;;;;;5053919;28;19959;-71
2023/07/03 04:40:13;;;;;;;;;;;;;;;;;;5053932;28;20408;-71
2023/07/03 04:42:39;;;;;;;;;;;;;;;;;;5052044;28;20048;-71
2023/07/03 04:45:07;;;;;;;;;;;;;;;;;;5054641;28;20032;-72
2023/07/03 04:47:33;;;;;;;;;;;;;;;;;;5053652;28;19951;-71
2023/07/03 04:49:59;;;;;;;;;;;;;;;;;;5053597;28;20391;-72
2023/07/03 04:52:27;;;;;;;;;;;;;;;;;;5053595;28;19984;-71
2023/07/03 04:54:53;;;;;;;;;;;;;;;;;;5053862;28;19951;-72
2023/07/03 04:57:19;;;;;;;;;;;;;;;;;;5053503;28;19973;-72
2023/07/03 04:59:45;;;;;;;;;;;;;;;;;;5053491;28;20410;-71
2023/07/03 05:02:12;;;;;;;;;;;;;;;;;;5054352;28;19978;-72
2023/07/03 05:04:38;;;;;;;;;;;;;;;;;;5057800;28;19970;-71
2023/07/03 05:07:04;;;;;;;;;;;;;;;;;;5057503;28;19952;-72
2023/07/03 05:09:30;;;;;;;;;;;;;;;;;;5058033;28;19949;-71
2023/07/03 05:11:56;;;;;;;;;;;;;;;;;;5057485;28;20002;-70
2023/07/03 05:14:21;;;;;;;;;;;;;;;;;;5057982;28;19951;-71
2023/07/03 05:16:47;;;;;;;;;;;;;;;;;;5057406;28;19950;-70
2023/07/03 05:19:13;;;;;;;;;;;;;;;;;;5057326;28;19982;-72
2023/07/03 05:21:39;;;;;;;;;;;;;;;;;;5057241;28;20305;-71
2023/07/03 05:24:05;;;;;;;;;;;;;;;;;;5057162;28;19983;-70
2023/07/03 05:26:31;;;;;;;;;;;;;;;;;;5057464;28;20439;-71
2023/07/03 05:28:57;;;;;;;;;;;;;;;;;;5057106;28;19950;-70
2023/07/03 05:31:23;;;;;;;;;;;;;;;;;;5057365;28;20025;-71
2023/07/03 05:33:49;;;;;;;;;;;;;;;;;;5057022;28;19955;-72
2023/07/03 05:36:15;;;;;;;;;;;;;;;;;;5057190;28;19980;-72
2023/07/03 05:38:41;;;;;;;;;;;;;;;;;;5056951;28;19952;-71
2023/07/03 05:41:06;;;;;;;;;;;;;;;;;;5056947;28;20403;-71
2023/07/03 05:43:32;;;;;;;;;;;;;;;;;;5056576;28;19995;-71
2023/07/03 05:45:58;;;;;;;;;;;;;;;;;;5057847;28;20326;-72
2023/07/03 05:48:24;;;;;;;;;;;;;;;;;;5057079;28;20044;-72
2023/07/03 05:50:50;;;;;;;;;;;;;;;;;;5055438;28;20336;-72
2023/07/03 05:53:16;;;;;;;;;;;;;;;;;;5056731;28;20475;-71
2023/07/03 05:55:43;;;;;;;;;;;;;;;;;;5056667;28;19954;-71
2023/07/03 05:58:09;;;;;;;;;;;;;;;;;;5057156;28;19951;-70
2023/07/03 06:00:37;;;;;;;;;;;;;;;;;;5056524;28;19965;-70
2023/07/03 06:03:04;;;;;;;;;;;;;;;;;;5056407;28;19992;-71
2023/07/03 06:05:30;;;;;;;;;;;;;;;;;;5056414;28;19952;-72
2023/07/03 06:07:56;;;;;;;;;;;;;;;;;;5056620;28;19952;-72
2023/07/03 06:10:23;;;;;;;;;;;;;;;;;;5056350;28;20391;-73
2023/07/03 06:12:49;;;;;;;;;;;;;;;;;;5054826;28;19965;-71
2023/07/03 06:15:15;;;;;;;;;;;;;;;;;;5055785;28;19962;-72
2023/07/03 06:17:42;;;;;;;;;;;;;;;;;;5056248;28;20438;-72
2023/07/03 06:20:08;;;;;;;;;;;;;;;;;;5056713;28;19962;-72
2023/07/03 06:22:34;;;;;;;;;;;;;;;;;;5056425;28;19955;-71
2023/07/03 06:24:59;;;;;;;;;;;;;;;;;;5055993;28;20073;-71
2023/07/03 06:27:25;;;;;;;;;;;;;;;;;;5056061;28;19961;-69
2023/07/03 06:29:51;;;;;;;;;;;;;;;;;;5055986;28;19960;-69
2023/07/03 06:32:18;;;;;;;;;;;;;;;;;;5056253;28;19955;-70
2023/07/03 06:34:44;;;;;;;;;;;;;;;;;;5054528;28;20064;-69
2023/07/03 06:37:10;;;;;;;;;;;;;;;;;;5056158;28;19988;-69
2023/07/03 06:39:37;;;;;;;;;;;;;;;;;;5055825;28;20323;-68
2023/07/03 06:42:03;;;;;;;;;;;;;;;;;;5055852;28;19954;-70
2023/07/03 06:44:29;;;;;;;;;;;;;;;;;;5056259;28;20438;-70
2023/07/03 06:46:55;;;;;;;;;;;;;;;;;;5056202;28;19965;-69
2023/07/03 06:49:22;;;;;;;;;;;;;;;;;;5055941;28;19953;-68
2023/07/03 06:51:48;;;;;;;;;;;;;;;;;;5054347;28;19958;-69
2023/07/03 06:54:14;;;;;;;;;;;;;;;;;;5055842;28;19961;-69
2023/07/03 06:56:40;;;;;;;;;;;;;;;;;;5055505;28;20003;-69
2023/07/03 06:59:06;;;;;;;;;;;;;;;;;;5055490;28;19955;-72
2023/07/03 07:01:32;;;;;;;;;;;;;;;;;;5055704;28;19988;-71
2023/07/03 07:03:57;;;;;;;;;;;;;;;;;;5054683;28;19973;-74
2023/07/03 07:06:23;;;;;;;;;;;;;;;;;;5048182;28;20062;-72
2023/07/03 07:08:49;;;;;;;;;;;;;;;;;;5055243;28;20060;-73
2023/07/03 07:11:15;;;;;;;;;;;;;;;;;;5039947;28;20259;-72
2023/07/03 07:13:41;;;;;;;;;;;;;;;;;;5035022;28;20038;-72
2023/07/03 07:16:07;;;;;;;;;;;;;;;;;;5043046;28;20338;-73
2023/07/03 07:18:33;;;;;;;;;;;;;;;;;;5038268;28;19962;-74
2023/07/03 07:20:59;;;;;;;;;;;;;;;;;;5051013;28;20301;-73
2023/07/03 07:23:25;;;;;;;;;;;;;;;;;;5037274;28;19983;-71
2023/07/03 07:25:51;;;;;;;;;;;;;;;;;;5046038;28;20020;-71
2023/07/03 07:28:17;;;;;;;;;;;;;;;;;;5039229;28;20406;-81
2023/07/03 07:30:43;;;;;;;;;;;;;;;;;;5053840;28;20011;-77
2023/07/03 07:33:09;;;;;;;;;;;;;;;;;;5053160;28;19963;-78
2023/07/03 07:35:35;;;;;;;;;;;;;;;;;;5054797;28;20073;-76
2023/07/03 07:38:01;;;;;;;;;;;;;;;;;;5041679;28;19996;-77
2023/07/03 07:40:27;;;;;;;;;;;;;;;;;;5039634;28;20441;-79
2023/07/03 07:42:53;;;;;;;;;;;;;;;;;;5054409;28;20082;-74
2023/07/03 07:45:19;;;;;;;;;;;;;;;;;;5053006;28;20337;-73
2023/07/03 07:47:44;;;;;;;;;;;;;;;;;;5046090;28;20489;-72
2023/07/03 07:50:10;;;;;;;;;;;;;;;;;;5053914;28;19955;-72
2023/07/03 07:52:36;;;;;;;;;;;;;;;;;;5046842;28;20368;-74
2023/07/03 07:55:02;;;;;;;;;;;;;;;;;;5051764;28;19964;-73
2023/07/03 07:57:29;;;;;;;;;;;;;;;;;;5034438;28;20014;-77
2023/07/03 07:59:55;;;;;;;;;;;;;;;;;;5046349;28;20384;-73
2023/07/03 08:02:21;;;;;;;;;;;;;;;;;;5037586;28;19968;-69
2023/07/03 08:04:46;;;;;;;;;;;;;;;;;;5035483;28;19980;-71
2023/07/03 08:07:12;;;;;;;;;;;;;;;;;;5034253;28;20424;-73
2023/07/03 08:09:38;;;;;;;;;;;;;;;;;;5034757;28;19955;-73
2023/07/03 08:12:04;;;;;;;;;;;;;;;;;;5050182;28;19969;-70
2023/07/03 08:14:30;;;;;;;;;;;;;;;;;;5052284;28;20406;-74
2023/07/03 08:16:56;;;;;;;;;;;;;;;;;;5040360;28;19962;-72
2023/07/03 08:19:22;;;;;;;;;;;;;;;;;;5054066;28;19975;-72
2023/07/03 08:21:48;;;;;;;;;;;;;;;;;;5046594;28;19964;-70
2023/07/03 08:24:14;;;;;;;;;;;;;;;;;;5047365;28;20026;-73
2023/07/03 08:26:41;;;;;;;;;;;;;;;;;;5053705;28;20005;-72
2023/07/03 08:29:07;;;;;;;;;;;;;;;;;;5039243;28;19963;-69
2023/07/03 08:31:33;;;;;;;;;;;;;;;;;;5034148;28;20459;-69
2023/07/03 08:33:59;;;;;;;;;;;;;;;;;;5047025;28;19965;-69
2023/07/03 08:36:25;;;;;;;;;;;;;;;;;;5034365;28;20351;-72
2023/07/03 08:38:50;;;;;;;;;;;;;;;;;;5033446;28;19959;-69
2023/07/03 08:41:16;;;;;;;;;;;;;;;;;;5049390;28;20017;-68
2023/07/03 08:43:42;;;;;;;;;;;;;;;;;;5038801;28;19994;-71
2023/07/03 08:46:08;;;;;;;;;;;;;;;;;;5035844;28;20049;-70
2023/07/03 08:48:34;;;;;;;;;;;;;;;;;;5036613;28;19989;-70
2023/07/03 08:51:00;;;;;;;;;;;;;;;;;;5043275;28;20431;-70
2023/07/03 08:53:26;;;;;;;;;;;;;;;;;;5038779;28;20042;-69
2023/07/03 08:55:52;;;;;;;;;;;;;;;;;;5039148;28;19965;-70
2023/07/03 08:58:18;;;;;;;;;;;;;;;;;;5044945;28;20448;-71
2023/07/03 09:00:44;;;;;;;;;;;;;;;;;;5042057;28;19962;-70
2023/07/03 09:03:09;;;;;;;;;;;;;;;;;;5034974;28;19959;-75
2023/07/03 09:05:35;;;;;;;;;;;;;;;;;;5038681;28;19966;-74
2023/07/03 09:08:01;;;;;;;;;;;;;;;;;;5034862;28;20409;-68
2023/07/03 09:10:27;;;;;;;;;;;;;;;;;;5034222;28;19955;-68
2023/07/03 09:12:53;;;;;;;;;;;;;;;;;;5032819;28;19959;-67
2023/07/03 09:15:19;;;;;;;;;;;;;;;;;;5033496;28;20022;-67
2023/07/03 09:17:45;;;;;;;;;;;;;;;;;;5032693;28;20474;-68
2023/07/03 09:20:11;;;;;;;;;;;;;;;;;;5031670;28;19955;-68
2023/07/03 09:22:36;;;;;;;;;;;;;;;;;;5032343;28;20395;-67
2023/07/03 09:25:02;;;;;;;;;;;;;;;;;;5037987;28;19981;-68
2023/07/03 09:27:29;;;;;;;;;;;;;;;;;;5052442;28;19956;-68
2023/07/03 09:29:54;;;;;;;;;;;;;;;;;;5051918;28;20050;-68
2023/07/03 09:32:20;;;;;;;;;;;;;;;;;;5051714;28;19981;-67
2023/07/03 09:34:46;;;;;;;;;;;;;;;;;;5053589;28;20411;-68
2023/07/03 09:37:12;;;;;;;;;;;;;;;;;;5053386;28;19954;-67
2023/07/03 09:39:38;;;;;;;;;;;;;;;;;;5053278;28;20423;-67
2023/07/03 09:42:04;;;;;;;;;;;;;;;;;;5040617;28;20008;-76
2023/07/03 09:44:30;;;;;;;;;;;;;;;;;;5051253;28;20437;-73
2023/07/03 09:46:56;;;;;;;;;;;;;;;;;;5038154;28;19967;-70
2023/07/03 09:49:21;;;;;;;;;;;;;;;;;;5046884;28;20332;-75
2023/07/03 09:51:47;;;;;;;;;;;;;;;;;;5052558;28;20438;-75
2023/07/03 09:54:13;;;;;;;;;;;;;;;;;;5055377;28;19958;-76
2023/07/03 09:56:39;;;;;;;;;;;;;;;;;;5054765;28;19966;-73
2023/07/03 09:59:05;;;;;;;;;;;;;;;;;;5046019;28;19965;-69
2023/07/03 10:01:31;;;;;;;;;;;;;;;;;;5047994;28;19960;-72
2023/07/03 10:03:57;;;;;;;;;;;;;;;;;;5053738;28;19975;-67
2023/07/03 10:06:23;;;;;;;;;;;;;;;;;;5042876;28;20423;-71
2023/07/03 10:08:49;;;;;;;;;;;;;;;;;;5046769;28;19966;-70
2023/07/03 10:11:14;;;;;;;;;;;;;;;;;;5038680;28;19993;-69
2023/07/03 10:13:40;;;;;;;;;;;;;;;;;;5053775;28;19987;-72
2023/07/03 10:16:07;;;;;;;;;;;;;;;;;;5056219;28;19955;-71
2023/07/03 10:18:33;;;;;;;;;;;;;;;;;;5055844;28;19959;-74
2023/07/03 10:20:59;;;;;;;;;;;;;;;;;;5046276;28;19966;-71
2023/07/03 10:23:25;;;;;;;;;;;;;;;;;;5054705;28;19987;-69
2023/07/03 10:25:51;;;;;;;;;;;;;;;;;;5046909;28;20044;-73
2023/07/03 10:28:17;;;;;;;;;;;;;;;;;;5052843;28;20006;-71
2023/07/03 10:30:43;;;;;;;;;;;;;;;;;;5056051;28;20377;-70
2023/07/03 10:33:10;;;;;;;;;;;;;;;;;;5056268;28;19999;-70
2023/07/03 10:35:37;;;;;;;;;;;;;;;;;;5055800;28;20427;-70
2023/07/03 10:38:03;;;;;;;;;;;;;;;;;;5055912;28;19955;-70
2023/07/03 10:40:30;;;;;;;;;;;;;;;;;;5056096;28;20061;-69
2023/07/03 10:42:56;;;;;;;;;;;;;;;;;;5055549;28;20338;-70
2023/07/03 10:45:22;;;;;;;;;;;;;;;;;;5055715;28;19965;-71
2023/07/03 10:47:48;;;;;;;;;;;;;;;;;;5056229;28;19994;-69
2023/07/03 10:50:16;;;;;;;;;;;;;;;;;;5055644;28;19956;-70
2023/07/03 10:52:42;;;;;;;;;;;;;;;;;;5056183;28;20450;-71
2023/07/03 10:55:08;;;;;;;;;;;;;;;;;;5055542;28;20046;-70
2023/07/03 10:57:34;;;;;;;;;;;;;;;;;;5055495;28;19993;-71
2023/07/03 11:00:00;;;;;;;;;;;;;;;;;;5053877;28;19967;-72
2023/07/03 11:02:26;;;;;;;;;;;;;;;;;;5055434;28;20041;-71
2023/07/03 11:04:52;;;;;;;;;;;;;;;;;;5055608;28;19979;-73
2023/07/03 11:07:18;;;;;;;;;;;;;;;;;;5055272;28;20003;-73
2023/07/03 11:09:44;;;;;;;;;;;;;;;;;;5056140;28;19959;-73
2023/07/03 11:12:10;;;;;;;;;;;;;;;;;;5055233;28;19960;-74
2023/07/03 11:14:35;;;;;;;;;;;;;;;;;;5055474;28;20037;-73
2023/07/03 11:17:01;;;;;;;;;;;;;;;;;;5055166;28;20072;-72
2023/07/03 11:19:29;;;;;;;;;;;;;;;;;;5055082;28;20009;-72
2023/07/03 11:21:55;;;;;;;;;;;;;;;;;;5055395;28;20416;-72
2023/07/03 11:24:21;;;;;;;;;;;;;;;;;;5055193;28;19975;-73
2023/07/03 11:26:47;;;;;;;;;;;;;;;;;;5054922;28;19961;-73
2023/07/03 11:29:13;;;;;;;;;;;;;;;;;;5055174;28;19960;-71
2023/07/03 11:31:39;;;;;;;;;;;;;;;;;;5054837;28;20317;-73
2023/07/03 11:34:05;;;;;;;;;;;;;;;;;;5054714;28;20046;-72
2023/07/03 11:36:31;;;;;;;;;;;;;;;;;;5055047;28;19959;-72
2023/07/03 11:38:56;;;;;;;;;;;;;;;;;;5054696;28;20051;-72
2023/07/03 11:41:22;;;;;;;;;;;;;;;;;;5055184;28;19955;-73
2023/07/03 11:43:48;;;;;;;;;;;;;;;;;;5052252;28;19997;-72
2023/07/03 11:46:14;;;;;;;;;;;;;;;;;;5054075;28;20445;-70
2023/07/03 11:48:40;;;;;;;;;;;;;;;;;;5054008;28;19958;-69
2023/07/03 11:51:06;;;;;;;;;;;;;;;;;;5054466;28;19961;-68
2023/07/03 11:53:32;;;;;;;;;;;;;;;;;;5041084;28;19955;-77
2023/07/03 11:55:58;;;;;;;;;;;;;;;;;;5052536;28;19958;-78
2023/07/03 11:58:24;;;;;;;;;;;;;;;;;;5047362;28;20338;-74
2023/07/03 12:00:49;;;;;;;;;;;;;;;;;;5051953;28;19963;-70
2023/07/03 12:03:15;;;;;;;;;;;;;;;;;;5043604;28;19963;-70
2023/07/03 12:05:41;;;;;;;;;;;;;;;;;;5054163;28;20308;-78
2023/07/03 12:08:07;;;;;;;;;;;;;;;;;;5038743;28;19955;-70
2023/07/03 12:10:33;;;;;;;;;;;;;;;;;;5046123;28;19993;-70
2023/07/03 12:12:59;;;;;;;;;;;;;;;;;;5042011;28;19960;-69
2023/07/03 12:15:25;;;;;;;;;;;;;;;;;;5039489;28;19994;-67
2023/07/03 12:17:51;;;;;;;;;;;;;;;;;;5039676;28;19959;-68
2023/07/03 12:20:16;;;;;;;;;;;;;;;;;;5034110;28;19959;-68
2023/07/03 12:22:42;;;;;;;;;;;;;;;;;;5054091;28;20429;-78
2023/07/03 12:25:08;;;;;;;;;;;;;;;;;;5045197;28;19973;-76
2023/07/03 12:27:34;;;;;;;;;;;;;;;;;;5040636;28;20408;-74
2023/07/03 12:30:01;;;;;;;;;;;;;;;;;;5046917;28;19962;-74
2023/07/03 12:32:27;;;;;;;;;;;;;;;;;;5048347;28;20439;-74
2023/07/03 12:34:53;;;;;;;;;;;;;;;;;;5047804;28;19970;-69
2023/07/03 12:37:20;;;;;;;;;;;;;;;;;;5053999;28;19964;-68
2023/07/03 12:39:46;;;;;;;;;;;;;;;;;;5045402;28;20001;-68
2023/07/03 12:42:12;;;;;;;;;;;;;;;;;;5034077;28;20356;-68
2023/07/03 12:44:38;;;;;;;;;;;;;;;;;;5043878;28;20019;-69
2023/07/03 12:47:04;;;;;;;;;;;;;;;;;;5039305;28;20049;-69
2023/07/03 12:49:30;;;;;;;;;;;;;;;;;;5051251;28;19965;-67
2023/07/03 12:51:56;;;;;;;;;;;;;;;;;;5035713;28;20001;-78
2023/07/03 12:54:22;;;;;;;;;;;;;;;;;;5044243;28;20474;-70
2023/07/03 12:56:48;;;;;;;;;;;;;;;;;;5040814;28;19961;-71
2023/07/03 12:59:14;;;;;;;;;;;;;;;;;;5034450;28;19955;-72
2023/07/03 13:01:40;;;;;;;;;;;;;;;;;;5034633;28;19959;-75
2023/07/03 13:04:06;;;;;;;;;;;;;;;;;;5033760;28;19979;-79
2023/07/03 13:06:32;;;;;;;;;;;;;;;;;;5033892;28;19958;-78
2023/07/03 13:08:58;;;;;;;;;;;;;;;;;;5043586;28;19959;-73
2023/07/03 13:11:24;;;;;;;;;;;;;;;;;;5045916;28;20011;-72
2023/07/03 13:13:49;;;;;;;;;;;;;;;;;;5034333;28;20546;-72
2023/07/03 13:16:15;;;;;;;;;;;;;;;;;;5043444;28;19974;-76
2023/07/03 13:18:41;;;;;;;;;;;;;;;;;;5036584;28;20377;-74
2023/07/03 13:21:07;;;;;;;;;;;;;;;;;;5035499;28;19998;-71
2023/07/03 13:23:33;;;;;;;;;;;;;;;;;;5036659;28;20002;-73
2023/07/03 13:26:00;;;;;;;;;;;;;;;;;;5041744;28;19958;-72
2023/07/03 13:28:25;;;;;;;;;;;;;;;;;;5057471;28;20010;-69
2023/07/03 13:30:51;;;;;;;;;;;;;;;;;;5055408;28;19963;-70
2023/07/03 13:33:18;;;;;;;;;;;;;;;;;;5052260;28;19971;-70
2023/07/03 13:35:44;;;;;;;;;;;;;;;;;;5035760;28;20387;-70
2023/07/03 13:38:10;;;;;;;;;;;;;;;;;;5037069;28;19970;-68
2023/07/03 13:40:36;;;;;;;;;;;;;;;;;;5047602;28;19966;-70
2023/07/03 13:43:02;;;;;;;;;;;;;;;;;;5041919;28;20105;-70
2023/07/03 13:45:27;;;;;;;;;;;;;;;;;;5040581;28;20033;-73
2023/07/03 13:47:53;;;;;;;;;;;;;;;;;;5044532;28;20396;-71
2023/07/03 13:50:19;;;;;;;;;;;;;;;;;;5048502;28;19969;-70
2023/07/03 13:52:45;;;;;;;;;;;;;;;;;;5046431;28;19989;-70
2023/07/03 13:55:11;;;;;;;;;;;;;;;;;;5050497;28;19966;-70
2023/07/03 13:57:37;;;;;;;;;;;;;;;;;;5049283;28;19958;-72
2023/07/03 14:00:03;;;;;;;;;;;;;;;;;;5040584;28;19970;-70
2023/07/03 14:02:30;;;;;;;;;;;;;;;;;;5036752;28;20051;-72
2023/07/03 14:04:56;;;;;;;;;;;;;;;;;;5041370;28;19987;-76
2023/07/03 14:07:22;;;;;;;;;;;;;;;;;;5054188;28;20036;-78
2023/07/03 14:09:47;;;;;;;;;;;;;;;;;;5053173;28;19969;-75
2023/07/03 14:12:13;;;;;;;;;;;;;;;;;;5036616;28;19961;-75
2023/07/03 14:14:39;;;;;;;;;;;;;;;;;;5036869;28;19955;-78
2023/07/03 14:17:05;;;;;;;;;;;;;;;;;;5036403;28;19953;-75
2023/07/03 14:19:31;;;;;;;;;;;;;;;;;;5038215;28;20434;-69
2023/07/03 14:21:57;;;;;;;;;;;;;;;;;;5056215;28;19953;-68
2023/07/03 14:24:23;;;;;;;;;;;;;;;;;;5056326;28;20077;-69
2023/07/03 14:26:49;;;;;;;;;;;;;;;;;;5051722;28;19957;-71
2023/07/03 14:29:15;;;;;;;;;;;;;;;;;;5053628;28;19967;-69
2023/07/03 14:31:40;;;;;;;;;;;;;;;;;;5045649;28;19958;-72
2023/07/03 14:34:06;;;;;;;;;;;;;;;;;;5053638;28;20039;-71
2023/07/03 14:36:32;;;;;;;;;;;;;;;;;;5055638;28;19955;-71
2023/07/03 14:38:58;;;;;;;;;;;;;;;;;;5055870;28;19963;-69
2023/07/03 14:41:24;;;;;;;;;;;;;;;;;;5055932;28;19956;-77
2023/07/03 14:43:50;;;;;;;;;;;;;;;;;;5055259;28;20478;-71
2023/07/03 14:46:16;;;;;;;;;;;;;;;;;;5056199;28;20096;-71
2023/07/03 14:48:42;;;;;;;;;;;;;;;;;;5056242;28;19962;-70
2023/07/03 14:51:08;;;;;;;;;;;;;;;;;;5055974;28;19961;-69
2023/07/03 14:53:33;;;;;;;;;;;;;;;;;;5055651;28;20428;-70
2023/07/03 14:56:00;;;;;;;;;;;;;;;;;;5055578;28;19988;-69
2023/07/03 14:58:26;;;;;;;;;;;;;;;;;;5055531;28;19965;-69
2023/07/03 15:00:52;;;;;;;;;;;;;;;;;;5055793;28;19957;-71
2023/07/03 15:03:18;;;;;;;;;;;;;;;;;;5055615;28;19954;-70
2023/07/03 15:05:45;;;;;;;;;;;;;;;;;;5055335;28;20001;-71
2023/07/03 15:08:12;;;;;;;;;;;;;;;;;;5055905;28;19953;-70
2023/07/03 15:10:38;;;;;;;;;;;;;;;;;;5055574;28;19961;-69
2023/07/03 15:13:05;;;;;;;;;;;;;;;;;;5055811;28;19953;-70
2023/07/03 15:15:31;;;;;;;;;;;;;;;;;;5055507;28;20421;-68
2023/07/03 15:17:56;;;;;;;;;;;;;;;;;;5055173;28;19974;-69
2023/07/03 15:20:22;;;;;;;;;;;;;;;;;;5055032;28;19956;-69
2023/07/03 15:22:48;;;;;;;;;;;;;;;;;;5055333;28;19976;-66
2023/07/03 15:25:14;;;;;;;;;;;;;;;;;;5054836;28;19981;-67
2023/07/03 15:27:40;;;;;;;;;;;;;;;;;;5054883;28;20410;-67
2023/07/03 15:30:06;;;;;;;;;;;;;;;;;;5054828;28;19958;-66
2023/07/03 15:32:32;;;;;;;;;;;;;;;;;;5053369;28;19959;-68
2023/07/03 15:34:58;;;;;;;;;;;;;;;;;;5054922;28;20017;-67
2023/07/03 15:37:24;;;;;;;;;;;;;;;;;;5055270;28;20407;-68
2023/07/03 15:39:50;;;;;;;;;;;;;;;;;;5054987;28;20047;-67
2023/07/03 15:42:16;;;;;;;;;;;;;;;;;;5054673;28;19965;-66
2023/07/03 15:44:42;;;;;;;;;;;;;;;;;;5054894;28;19969;-66
2023/07/03 15:47:08;;;;;;;;;;;;;;;;;;5054402;28;20422;-66
2023/07/03 15:49:35;;;;;;;;;;;;;;;;;;5055076;28;19986;-67
2023/07/03 15:52:01;;;;;;;;;;;;;;;;;;5053198;28;20003;-67
2023/07/03 15:54:27;;;;;;;;;;;;;;;;;;5054733;28;19950;-67
2023/07/03 15:56:53;;;;;;;;;;;;;;;;;;5054454;28;19954;-68
2023/07/03 15:59:19;;;;;;;;;;;;;;;;;;5054905;28;19955;-67
2023/07/03 16:01:45;;;;;;;;;;;;;;;;;;5054334;28;20049;-67
2023/07/03 16:04:11;;;;;;;;;;;;;;;;;;5054789;28;20414;-68
2023/07/03 16:06:37;;;;;;;;;;;;;;;;;;5054513;28;19961;-68
2023/07/03 16:09:03;;;;;;;;;;;;;;;;;;5054746;28;20053;-67
2023/07/03 16:11:29;;;;;;;;;;;;;;;;;;5054179;28;19954;-68
2023/07/03 16:13:55;;;;;;;;;;;;;;;;;;5054380;28;20012;-68
2023/07/03 16:16:21;;;;;;;;;;;;;;;;;;5054079;28;19978;-67
2023/07/03 16:18:47;;;;;;;;;;;;;;;;;;5053809;28;19987;-67
2023/07/03 16:21:13;;;;;;;;;;;;;;;;;;5054250;28;19955;-67
2023/07/03 16:23:38;;;;;;;;;;;;;;;;;;5054213;28;20410;-68
2023/07/03 16:26:04;;;;;;;;;;;;;;;;;;5054505;28;19959;-68
2023/07/03 16:28:30;;;;;;;;;;;;;;;;;;5053889;28;20322;-66
2023/07/03 16:30:56;;;;;;;;;;;;;;;;;;5054397;28;20319;-67
2023/07/03 16:33:22;;;;;;;;;;;;;;;;;;5054045;28;19954;-66
2023/07/03 16:35:48;;;;;;;;;;;;;;;;;;5053681;28;20316;-68
2023/07/03 16:38:15;;;;;;;;;;;;;;;;;;5054056;28;19997;-67